sensor_id;sensor_type;location;lat;lon;timestamp;temperature;humidity
9987;DHT22;5033;46.310;11.214;2024-01-11T00:01:37;1.30;99.90
9987;DHT22;5033;46.310;11.214;2024-01-11T00:04:06;1.30;99.90
9987;DHT22;5033;46.310;11.214;2024-01-11T00:06:33;1.30;99.90
9987;DHT22;5033;46.310;11.214;2024-01-11T00:09:06;1.30;99.90
9987;DHT22;5033;46.310;11.214;2024-01-11T00:11:33;1.30;99.90
9987;DHT22;5033;46.310;11.214;2024-01-11T00:14:00;1.30;99.90
9987;DHT22;5033;46.310;11.214;2024-01-11T00:16:27;1.30;99.90
9987;DHT22;5033;46.310;11.214;2024-01-11T00:18:54;1.20;99.90
9987;DHT22;5033;46.310;11.214;2024-01-11T00:21:23;1.20;99.90
9987;DHT22;5033;46.310;11.214;2024-01-11T00:23:50;1.20;99.90
9987;DHT22;5033;46.310;11.214;2024-01-11T00:26:17;1.20;99.90
9987;DHT22;5033;46.310;11.214;2024-01-11T00:28:44;1.20;99.90
9987;DHT22;5033;46.310;11.214;2024-01-11T00:31:12;1.20;99.90
9987;DHT22;5033;46.310;11.214;2024-01-11T00:33:39;1.20;99.90
9987;DHT22;5033;46.310;11.214;2024-01-11T00:36:06;1.20;99.90
9987;DHT22;5033;46.310;11.214;2024-01-11T00:38:35;1.20;99.90
9987;DHT22;5033;46.310;11.214;2024-01-11T00:41:02;1.20;99.90
9987;DHT22;5033;46.310;11.214;2024-01-11T00:43:29;1.10;99.90
9987;DHT22;5033;46.310;11.214;2024-01-11T00:45:56;1.10;99.90
9987;DHT22;5033;46.310;11.214;2024-01-11T00:48:23;1.00;99.90
9987;DHT22;5033;46.310;11.214;2024-01-11T00:50:51;1.00;99.90
9987;DHT22;5033;46.310;11.214;2024-01-11T00:53:18;1.00;99.90
9987;DHT22;5033;46.310;11.214;2024-01-11T00:55:46;1.10;99.90
9987;DHT22;5033;46.310;11.214;2024-01-11T00:58:13;1.10;99.90
9987;DHT22;5033;46.310;11.214;2024-01-11T01:00:40;1.10;99.90
9987;DHT22;5033;46.310;11.214;2024-01-11T01:03:08;1.10;99.90
9987;DHT22;5033;46.310;11.214;2024-01-11T01:05:35;1.10;99.90
9987;DHT22;5033;46.310;11.214;2024-01-11T01:08:02;1.10;99.90
9987;DHT22;5033;46.310;11.214;2024-01-11T01:10:29;1.10;99.90
9987;DHT22;5033;46.310;11.214;2024-01-11T01:12:57;1.10;99.90
9987;DHT22;5033;46.310;11.214;2024-01-11T01:15:24;1.10;99.90
9987;DHT22;5033;46.310;11.214;2024-01-11T01:17:52;1.10;99.90
9987;DHT22;5033;46.310;11.214;2024-01-11T01:20:19;1.10;99.90
9987;DHT22;5033;46.310;11.214;2024-01-11T01:22:46;1.10;99.90
9987;DHT22;5033;46.310;11.214;2024-01-11T01:25:13;1.00;99.90
9987;DHT22;5033;46.310;11.214;2024-01-11T01:27:40;1.00;99.90
9987;DHT22;5033;46.310;11.214;2024-01-11T01:30:09;1.00;99.90
9987;DHT22;5033;46.310;11.214;2024-01-11T01:32:36;1.00;99.90
9987;DHT22;5033;46.310;11.214;2024-01-11T01:35:04;1.00;99.90
9987;DHT22;5033;46.310;11.214;2024-01-11T01:37:31;0.90;99.90
9987;DHT22;5033;46.310;11.214;2024-01-11T01:39:58;0.90;99.90
9987;DHT22;5033;46.310;11.214;2024-01-11T01:42:25;0.90;99.90
9987;DHT22;5033;46.310;11.214;2024-01-11T01:44:52;0.90;99.90
9987;DHT22;5033;46.310;11.214;2024-01-11T01:47:22;0.90;99.90
9987;DHT22;5033;46.310;11.214;2024-01-11T01:49:50;0.90;99.90
9987;DHT22;5033;46.310;11.214;2024-01-11T01:52:17;0.90;99.90
9987;DHT22;5033;46.310;11.214;2024-01-11T01:54:45;0.90;99.90
9987;DHT22;5033;46.310;11.214;2024-01-11T01:57:13;0.90;99.90
9987;DHT22;5033;46.310;11.214;2024-01-11T01:59:40;0.90;99.90
9987;DHT22;5033;46.310;11.214;2024-01-11T02:02:09;0.90;99.90
9987;DHT22;5033;46.310;11.214;2024-01-11T02:04:39;0.90;99.90
9987;DHT22;5033;46.310;11.214;2024-01-11T02:07:06;0.90;99.90
9987;DHT22;5033;46.310;11.214;2024-01-11T02:09:34;0.80;99.90
9987;DHT22;5033;46.310;11.214;2024-01-11T02:12:03;0.90;99.90
9987;DHT22;5033;46.310;11.214;2024-01-11T02:14:30;0.90;99.90
9987;DHT22;5033;46.310;11.214;2024-01-11T02:16:58;0.80;99.90
9987;DHT22;5033;46.310;11.214;2024-01-11T02:19:25;0.90;99.90
9987;DHT22;5033;46.310;11.214;2024-01-11T02:21:54;0.90;99.90
9987;DHT22;5033;46.310;11.214;2024-01-11T02:24:23;0.90;99.90
9987;DHT22;5033;46.310;11.214;2024-01-11T02:26:58;0.80;99.90
9987;DHT22;5033;46.310;11.214;2024-01-11T02:29:25;0.80;99.90
9987;DHT22;5033;46.310;11.214;2024-01-11T02:31:53;0.80;99.90
9987;DHT22;5033;46.310;11.214;2024-01-11T02:34:20;0.80;99.90
9987;DHT22;5033;46.310;11.214;2024-01-11T02:36:48;0.80;99.90
9987;DHT22;5033;46.310;11.214;2024-01-11T02:39:16;0.70;99.90
9987;DHT22;5033;46.310;11.214;2024-01-11T02:41:47;0.60;99.90
9987;DHT22;5033;46.310;11.214;2024-01-11T02:44:16;0.60;99.90
9987;DHT22;5033;46.310;11.214;2024-01-11T02:46:43;0.60;99.90
9987;DHT22;5033;46.310;11.214;2024-01-11T02:49:10;0.60;99.90
9987;DHT22;5033;46.310;11.214;2024-01-11T02:51:37;0.70;99.90
9987;DHT22;5033;46.310;11.214;2024-01-11T02:54:05;0.70;99.90
9987;DHT22;5033;46.310;11.214;2024-01-11T02:56:32;0.70;99.90
9987;DHT22;5033;46.310;11.214;2024-01-11T02:59:00;0.70;99.90
9987;DHT22;5033;46.310;11.214;2024-01-11T03:01:27;0.70;99.90
9987;DHT22;5033;46.310;11.214;2024-01-11T03:03:55;0.70;99.90
9987;DHT22;5033;46.310;11.214;2024-01-11T03:06:22;0.70;99.90
9987;DHT22;5033;46.310;11.214;2024-01-11T03:08:49;0.70;99.90
9987;DHT22;5033;46.310;11.214;2024-01-11T03:11:16;0.70;99.90
9987;DHT22;5033;46.310;11.214;2024-01-11T03:13:44;0.70;99.90
9987;DHT22;5033;46.310;11.214;2024-01-11T03:16:12;0.60;99.90
9987;DHT22;5033;46.310;11.214;2024-01-11T03:18:40;0.70;99.90
9987;DHT22;5033;46.310;11.214;2024-01-11T03:21:07;0.60;99.90
9987;DHT22;5033;46.310;11.214;2024-01-11T03:23:34;0.60;99.90
9987;DHT22;5033;46.310;11.214;2024-01-11T03:26:01;0.60;99.90
9987;DHT22;5033;46.310;11.214;2024-01-11T03:28:28;0.50;99.90
9987;DHT22;5033;46.310;11.214;2024-01-11T03:30:55;0.50;99.90
9987;DHT22;5033;46.310;11.214;2024-01-11T03:33:23;0.50;99.90
9987;DHT22;5033;46.310;11.214;2024-01-11T03:35:51;0.50;99.90
9987;DHT22;5033;46.310;11.214;2024-01-11T03:38:18;0.50;99.90
9987;DHT22;5033;46.310;11.214;2024-01-11T03:40:45;0.50;99.90
9987;DHT22;5033;46.310;11.214;2024-01-11T03:43:12;0.60;99.90
9987;DHT22;5033;46.310;11.214;2024-01-11T03:45:39;0.60;99.90
9987;DHT22;5033;46.310;11.214;2024-01-11T03:48:06;0.60;99.90
9987;DHT22;5033;46.310;11.214;2024-01-11T03:50:34;0.60;99.90
9987;DHT22;5033;46.310;11.214;2024-01-11T03:53:02;0.60;99.90
9987;DHT22;5033;46.310;11.214;2024-01-11T03:55:29;0.60;99.90
9987;DHT22;5033;46.310;11.214;2024-01-11T03:57:57;0.50;99.90
9987;DHT22;5033;46.310;11.214;2024-01-11T04:00:24;0.50;99.90
9987;DHT22;5033;46.310;11.214;2024-01-11T04:02:51;0.50;99.90
9987;DHT22;5033;46.310;11.214;2024-01-11T04:05:18;0.50;99.90
9987;DHT22;5033;46.310;11.214;2024-01-11T04:07:46;0.40;99.90
9987;DHT22;5033;46.310;11.214;2024-01-11T04:10:15;0.40;99.90
9987;DHT22;5033;46.310;11.214;2024-01-11T04:12:42;0.40;99.90
9987;DHT22;5033;46.310;11.214;2024-01-11T04:15:12;0.40;99.90
9987;DHT22;5033;46.310;11.214;2024-01-11T04:17:39;0.40;99.90
9987;DHT22;5033;46.310;11.214;2024-01-11T04:20:07;0.30;99.90
9987;DHT22;5033;46.310;11.214;2024-01-11T04:22:34;0.30;99.90
9987;DHT22;5033;46.310;11.214;2024-01-11T04:25:04;0.30;99.90
9987;DHT22;5033;46.310;11.214;2024-01-11T04:27:31;0.30;99.90
9987;DHT22;5033;46.310;11.214;2024-01-11T04:29:58;0.30;99.90
9987;DHT22;5033;46.310;11.214;2024-01-11T04:32:25;0.30;99.90
9987;DHT22;5033;46.310;11.214;2024-01-11T04:34:52;0.30;99.90
9987;DHT22;5033;46.310;11.214;2024-01-11T04:37:19;0.30;99.90
9987;DHT22;5033;46.310;11.214;2024-01-11T04:39:46;0.30;99.90
9987;DHT22;5033;46.310;11.214;2024-01-11T04:42:14;0.30;99.90
9987;DHT22;5033;46.310;11.214;2024-01-11T04:44:42;0.30;99.90
9987;DHT22;5033;46.310;11.214;2024-01-11T04:47:09;0.30;99.90
9987;DHT22;5033;46.310;11.214;2024-01-11T04:49:36;0.30;99.90
9987;DHT22;5033;46.310;11.214;2024-01-11T04:52:03;0.30;99.90
9987;DHT22;5033;46.310;11.214;2024-01-11T04:54:30;0.20;99.90
9987;DHT22;5033;46.310;11.214;2024-01-11T04:56:56;0.30;99.90
9987;DHT22;5033;46.310;11.214;2024-01-11T04:59:25;0.20;99.90
9987;DHT22;5033;46.310;11.214;2024-01-11T05:01:52;0.30;99.90
9987;DHT22;5033;46.310;11.214;2024-01-11T05:04:19;0.20;99.90
9987;DHT22;5033;46.310;11.214;2024-01-11T05:06:46;0.20;99.90
9987;DHT22;5033;46.310;11.214;2024-01-11T05:09:13;0.30;99.90
9987;DHT22;5033;46.310;11.214;2024-01-11T05:11:41;0.30;99.90
9987;DHT22;5033;46.310;11.214;2024-01-11T05:14:08;0.30;99.90
9987;DHT22;5033;46.310;11.214;2024-01-11T05:16:36;0.30;99.90
9987;DHT22;5033;46.310;11.214;2024-01-11T05:19:04;0.30;99.90
9987;DHT22;5033;46.310;11.214;2024-01-11T05:21:31;0.30;99.90
9987;DHT22;5033;46.310;11.214;2024-01-11T05:23:58;0.30;99.90
9987;DHT22;5033;46.310;11.214;2024-01-11T05:26:26;0.30;99.90
9987;DHT22;5033;46.310;11.214;2024-01-11T05:28:53;0.30;99.90
9987;DHT22;5033;46.310;11.214;2024-01-11T05:31:20;0.20;99.90
9987;DHT22;5033;46.310;11.214;2024-01-11T05:33:49;0.20;99.90
9987;DHT22;5033;46.310;11.214;2024-01-11T05:36:16;0.20;99.90
9987;DHT22;5033;46.310;11.214;2024-01-11T05:38:44;0.20;99.90
9987;DHT22;5033;46.310;11.214;2024-01-11T05:41:11;0.20;99.90
9987;DHT22;5033;46.310;11.214;2024-01-11T05:43:40;0.20;99.90
9987;DHT22;5033;46.310;11.214;2024-01-11T05:46:08;0.20;99.90
9987;DHT22;5033;46.310;11.214;2024-01-11T05:48:35;0.20;99.90
9987;DHT22;5033;46.310;11.214;2024-01-11T05:51:03;0.20;99.90
9987;DHT22;5033;46.310;11.214;2024-01-11T05:53:31;0.10;99.90
9987;DHT22;5033;46.310;11.214;2024-01-11T05:56:01;0.10;99.90
9987;DHT22;5033;46.310;11.214;2024-01-11T05:58:28;0.10;99.90
9987;DHT22;5033;46.310;11.214;2024-01-11T06:00:56;0.20;99.90
9987;DHT22;5033;46.310;11.214;2024-01-11T06:03:23;0.20;99.90
9987;DHT22;5033;46.310;11.214;2024-01-11T06:05:50;0.20;99.90
9987;DHT22;5033;46.310;11.214;2024-01-11T06:08:19;0.10;99.90
9987;DHT22;5033;46.310;11.214;2024-01-11T06:10:46;0.10;99.90
9987;DHT22;5033;46.310;11.214;2024-01-11T06:13:13;0.10;99.90
9987;DHT22;5033;46.310;11.214;2024-01-11T06:15:40;0.00;99.90
9987;DHT22;5033;46.310;11.214;2024-01-11T06:18:08;0.00;99.90
9987;DHT22;5033;46.310;11.214;2024-01-11T06:20:35;0.00;99.90
9987;DHT22;5033;46.310;11.214;2024-01-11T06:23:02;0.00;99.90
9987;DHT22;5033;46.310;11.214;2024-01-11T06:25:31;0.00;99.90
9987;DHT22;5033;46.310;11.214;2024-01-11T06:27:58;0.00;99.90
9987;DHT22;5033;46.310;11.214;2024-01-11T06:30:25;-0.10;99.90
9987;DHT22;5033;46.310;11.214;2024-01-11T06:32:52;0.00;99.90
9987;DHT22;5033;46.310;11.214;2024-01-11T06:35:19;-0.10;99.90
9987;DHT22;5033;46.310;11.214;2024-01-11T06:37:46;-0.10;99.90
9987;DHT22;5033;46.310;11.214;2024-01-11T06:40:13;-0.10;99.90
9987;DHT22;5033;46.310;11.214;2024-01-11T06:42:41;-0.10;99.90
9987;DHT22;5033;46.310;11.214;2024-01-11T06:45:09;-0.10;99.90
9987;DHT22;5033;46.310;11.214;2024-01-11T06:47:36;-0.10;99.90
9987;DHT22;5033;46.310;11.214;2024-01-11T06:50:04;-0.10;99.90
9987;DHT22;5033;46.310;11.214;2024-01-11T06:52:31;-0.10;99.90
9987;DHT22;5033;46.310;11.214;2024-01-11T06:54:58;-0.10;99.90
9987;DHT22;5033;46.310;11.214;2024-01-11T06:57:26;-0.10;99.90
9987;DHT22;5033;46.310;11.214;2024-01-11T06:59:55;-0.10;99.90
9987;DHT22;5033;46.310;11.214;2024-01-11T07:02:22;0.00;99.90
9987;DHT22;5033;46.310;11.214;2024-01-11T07:04:49;0.00;99.90
9987;DHT22;5033;46.310;11.214;2024-01-11T07:07:16;-0.10;99.90
9987;DHT22;5033;46.310;11.214;2024-01-11T07:09:43;-0.10;99.90
9987;DHT22;5033;46.310;11.214;2024-01-11T07:12:10;0.00;99.90
9987;DHT22;5033;46.310;11.214;2024-01-11T07:14:37;0.00;99.90
9987;DHT22;5033;46.310;11.214;2024-01-11T07:17:05;0.00;99.90
9987;DHT22;5033;46.310;11.214;2024-01-11T07:19:32;0.00;99.90
9987;DHT22;5033;46.310;11.214;2024-01-11T07:21:59;0.00;99.90
9987;DHT22;5033;46.310;11.214;2024-01-11T07:24:26;0.10;99.90
9987;DHT22;5033;46.310;11.214;2024-01-11T07:27:01;0.10;99.90
9987;DHT22;5033;46.310;11.214;2024-01-11T07:29:28;0.20;99.90
9987;DHT22;5033;46.310;11.214;2024-01-11T07:31:55;0.20;99.90
9987;DHT22;5033;46.310;11.214;2024-01-11T07:34:23;0.70;99.90
9987;DHT22;5033;46.310;11.214;2024-01-11T07:36:52;1.60;99.90
9987;DHT22;5033;46.310;11.214;2024-01-11T07:39:19;2.50;99.90
9987;DHT22;5033;46.310;11.214;2024-01-11T07:41:48;3.20;99.90
9987;DHT22;5033;46.310;11.214;2024-01-11T07:44:15;3.10;99.90
9987;DHT22;5033;46.310;11.214;2024-01-11T07:46:42;2.70;99.90
9987;DHT22;5033;46.310;11.214;2024-01-11T07:49:09;2.10;99.90
9987;DHT22;5033;46.310;11.214;2024-01-11T07:51:37;1.70;99.90
9987;DHT22;5033;46.310;11.214;2024-01-11T07:54:04;1.40;99.90
9987;DHT22;5033;46.310;11.214;2024-01-11T07:56:31;1.10;99.90
9987;DHT22;5033;46.310;11.214;2024-01-11T07:58:58;0.90;99.90
9987;DHT22;5033;46.310;11.214;2024-01-11T08:01:25;0.80;99.90
9987;DHT22;5033;46.310;11.214;2024-01-11T08:03:53;0.70;99.90
9987;DHT22;5033;46.310;11.214;2024-01-11T08:06:20;0.70;99.90
9987;DHT22;5033;46.310;11.214;2024-01-11T08:08:48;0.60;99.90
9987;DHT22;5033;46.310;11.214;2024-01-11T08:11:17;0.60;99.90
9987;DHT22;5033;46.310;11.214;2024-01-11T08:13:44;0.60;99.90
9987;DHT22;5033;46.310;11.214;2024-01-11T08:16:15;0.50;99.90
9987;DHT22;5033;46.310;11.214;2024-01-11T08:18:43;0.50;99.90
9987;DHT22;5033;46.310;11.214;2024-01-11T08:21:11;0.50;99.90
9987;DHT22;5033;46.310;11.214;2024-01-11T08:23:40;0.50;99.90
9987;DHT22;5033;46.310;11.214;2024-01-11T08:26:11;0.90;99.90
9987;DHT22;5033;46.310;11.214;2024-01-11T08:28:39;1.90;99.90
9987;DHT22;5033;46.310;11.214;2024-01-11T08:31:07;2.90;99.90
9987;DHT22;5033;46.310;11.214;2024-01-11T08:33:34;3.80;99.90
9987;DHT22;5033;46.310;11.214;2024-01-11T08:36:03;4.40;99.90
9987;DHT22;5033;46.310;11.214;2024-01-11T08:38:30;5.00;99.90
9987;DHT22;5033;46.310;11.214;2024-01-11T08:40:57;5.60;99.90
9987;DHT22;5033;46.310;11.214;2024-01-11T08:43:27;6.20;99.90
9987;DHT22;5033;46.310;11.214;2024-01-11T08:45:54;6.40;99.90
9987;DHT22;5033;46.310;11.214;2024-01-11T08:48:21;6.40;99.90
9987;DHT22;5033;46.310;11.214;2024-01-11T08:50:48;6.50;99.90
9987;DHT22;5033;46.310;11.214;2024-01-11T08:53:15;6.60;99.90
9987;DHT22;5033;46.310;11.214;2024-01-11T08:55:43;6.60;99.90
9987;DHT22;5033;46.310;11.214;2024-01-11T08:58:10;6.90;99.90
9987;DHT22;5033;46.310;11.214;2024-01-11T09:00:39;7.00;99.90
9987;DHT22;5033;46.310;11.214;2024-01-11T09:03:07;6.90;99.90
9987;DHT22;5033;46.310;11.214;2024-01-11T09:05:34;6.80;99.90
9987;DHT22;5033;46.310;11.214;2024-01-11T09:08:01;7.10;99.90
9987;DHT22;5033;46.310;11.214;2024-01-11T09:10:28;7.50;99.90
9987;DHT22;5033;46.310;11.214;2024-01-11T09:12:55;7.90;99.90
9987;DHT22;5033;46.310;11.214;2024-01-11T09:15:22;8.30;99.90
9987;DHT22;5033;46.310;11.214;2024-01-11T09:17:50;8.70;99.90
9987;DHT22;5033;46.310;11.214;2024-01-11T09:20:17;9.00;99.90
9987;DHT22;5033;46.310;11.214;2024-01-11T09:22:45;9.70;99.90
9987;DHT22;5033;46.310;11.214;2024-01-11T09:25:12;11.00;99.90
9987;DHT22;5033;46.310;11.214;2024-01-11T09:27:39;12.20;99.90
9987;DHT22;5033;46.310;11.214;2024-01-11T09:30:07;13.40;99.90
9987;DHT22;5033;46.310;11.214;2024-01-11T09:32:35;14.40;99.90
9987;DHT22;5033;46.310;11.214;2024-01-11T09:35:04;15.30;99.90
9987;DHT22;5033;46.310;11.214;2024-01-11T09:37:31;16.60;99.90
9987;DHT22;5033;46.310;11.214;2024-01-11T09:39:58;17.00;99.80
9987;DHT22;5033;46.310;11.214;2024-01-11T09:42:27;17.20;97.40
9987;DHT22;5033;46.310;11.214;2024-01-11T09:44:56;17.50;95.40
9987;DHT22;5033;46.310;11.214;2024-01-11T09:47:24;17.80;94.10
9987;DHT22;5033;46.310;11.214;2024-01-11T09:49:53;18.20;91.90
9987;DHT22;5033;46.310;11.214;2024-01-11T09:52:22;18.40;90.80
9987;DHT22;5033;46.310;11.214;2024-01-11T09:54:51;18.50;88.70
9987;DHT22;5033;46.310;11.214;2024-01-11T09:57:26;18.30;89.50
9987;DHT22;5033;46.310;11.214;2024-01-11T09:59:55;17.80;88.00
9987;DHT22;5033;46.310;11.214;2024-01-11T10:02:23;17.20;90.10
9987;DHT22;5033;46.310;11.214;2024-01-11T10:04:52;16.50;90.30
9987;DHT22;5033;46.310;11.214;2024-01-11T10:07:22;15.30;92.30
9987;DHT22;5033;46.310;11.214;2024-01-11T10:09:50;13.90;94.60
9987;DHT22;5033;46.310;11.214;2024-01-11T10:12:18;12.70;96.60
9987;DHT22;5033;46.310;11.214;2024-01-11T10:14:49;11.90;99.70
9987;DHT22;5033;46.310;11.214;2024-01-11T10:17:17;11.50;99.90
9987;DHT22;5033;46.310;11.214;2024-01-11T10:19:44;11.10;99.90
9987;DHT22;5033;46.310;11.214;2024-01-11T10:22:12;10.80;99.90
9987;DHT22;5033;46.310;11.214;2024-01-11T10:24:43;10.60;99.90
9987;DHT22;5033;46.310;11.214;2024-01-11T10:27:10;10.30;99.90
9987;DHT22;5033;46.310;11.214;2024-01-11T10:29:38;10.00;99.90
9987;DHT22;5033;46.310;11.214;2024-01-11T10:32:05;9.90;99.90
9987;DHT22;5033;46.310;11.214;2024-01-11T10:34:33;9.90;99.90
9987;DHT22;5033;46.310;11.214;2024-01-11T10:37:00;9.70;99.90
9987;DHT22;5033;46.310;11.214;2024-01-11T10:39:27;9.80;99.90
9987;DHT22;5033;46.310;11.214;2024-01-11T10:42:05;9.80;99.90
9987;DHT22;5033;46.310;11.214;2024-01-11T10:44:34;9.40;99.90
9987;DHT22;5033;46.310;11.214;2024-01-11T10:47:03;8.90;99.90
9987;DHT22;5033;46.310;11.214;2024-01-11T10:49:32;8.60;99.90
9987;DHT22;5033;46.310;11.214;2024-01-11T10:52:02;8.50;99.90
9987;DHT22;5033;46.310;11.214;2024-01-11T10:54:30;8.60;99.90
9987;DHT22;5033;46.310;11.214;2024-01-11T10:56:59;8.60;99.90
9987;DHT22;5033;46.310;11.214;2024-01-11T10:59:27;8.60;99.90
9987;DHT22;5033;46.310;11.214;2024-01-11T11:01:54;8.50;99.90
9987;DHT22;5033;46.310;11.214;2024-01-11T11:04:22;8.40;99.90
9987;DHT22;5033;46.310;11.214;2024-01-11T11:06:50;8.40;99.90
9987;DHT22;5033;46.310;11.214;2024-01-11T11:09:17;8.40;99.90
9987;DHT22;5033;46.310;11.214;2024-01-11T11:11:46;8.50;99.90
9987;DHT22;5033;46.310;11.214;2024-01-11T11:14:15;8.70;99.90
9987;DHT22;5033;46.310;11.214;2024-01-11T11:16:44;8.70;99.90
9987;DHT22;5033;46.310;11.214;2024-01-11T11:19:12;8.70;99.90
9987;DHT22;5033;46.310;11.214;2024-01-11T11:21:42;8.50;99.90
9987;DHT22;5033;46.310;11.214;2024-01-11T11:24:10;8.70;99.90
9987;DHT22;5033;46.310;11.214;2024-01-11T11:26:37;8.60;99.90
9987;DHT22;5033;46.310;11.214;2024-01-11T11:29:04;8.70;99.90
9987;DHT22;5033;46.310;11.214;2024-01-11T11:31:36;9.00;99.90
9987;DHT22;5033;46.310;11.214;2024-01-11T11:34:04;9.30;99.90
9987;DHT22;5033;46.310;11.214;2024-01-11T11:36:33;9.50;99.90
9987;DHT22;5033;46.310;11.214;2024-01-11T11:39:01;9.80;99.90
9987;DHT22;5033;46.310;11.214;2024-01-11T11:41:30;10.00;99.90
9987;DHT22;5033;46.310;11.214;2024-01-11T11:44:00;10.20;99.90
9987;DHT22;5033;46.310;11.214;2024-01-11T11:46:28;10.10;99.90
9987;DHT22;5033;46.310;11.214;2024-01-11T11:48:57;9.90;99.90
9987;DHT22;5033;46.310;11.214;2024-01-11T11:51:25;9.50;99.90
9987;DHT22;5033;46.310;11.214;2024-01-11T11:53:53;9.40;99.90
9987;DHT22;5033;46.310;11.214;2024-01-11T11:56:21;9.10;99.90
9987;DHT22;5033;46.310;11.214;2024-01-11T11:58:49;9.10;99.90
9987;DHT22;5033;46.310;11.214;2024-01-11T12:01:18;9.20;99.90
9987;DHT22;5033;46.310;11.214;2024-01-11T12:03:46;9.80;99.90
9987;DHT22;5033;46.310;11.214;2024-01-11T12:06:18;10.40;99.90
9987;DHT22;5033;46.310;11.214;2024-01-11T12:08:47;10.90;99.90
9987;DHT22;5033;46.310;11.214;2024-01-11T12:11:14;10.80;99.90
9987;DHT22;5033;46.310;11.214;2024-01-11T12:13:42;10.50;99.90
9987;DHT22;5033;46.310;11.214;2024-01-11T12:16:10;10.00;99.90
9987;DHT22;5033;46.310;11.214;2024-01-11T12:18:38;9.80;99.90
9987;DHT22;5033;46.310;11.214;2024-01-11T12:21:05;9.60;99.90
9987;DHT22;5033;46.310;11.214;2024-01-11T12:23:36;9.40;99.90
9987;DHT22;5033;46.310;11.214;2024-01-11T12:26:06;9.30;99.90
9987;DHT22;5033;46.310;11.214;2024-01-11T12:28:38;9.30;99.90
9987;DHT22;5033;46.310;11.214;2024-01-11T12:31:06;9.40;99.90
9987;DHT22;5033;46.310;11.214;2024-01-11T12:33:33;9.40;99.90
9987;DHT22;5033;46.310;11.214;2024-01-11T12:36:01;9.20;99.90
9987;DHT22;5033;46.310;11.214;2024-01-11T12:38:28;9.10;99.90
9987;DHT22;5033;46.310;11.214;2024-01-11T12:40:56;9.20;99.90
9987;DHT22;5033;46.310;11.214;2024-01-11T12:43:23;9.20;99.90
9987;DHT22;5033;46.310;11.214;2024-01-11T12:45:51;9.20;99.90
9987;DHT22;5033;46.310;11.214;2024-01-11T12:48:20;9.30;99.90
9987;DHT22;5033;46.310;11.214;2024-01-11T12:50:47;9.50;99.90
9987;DHT22;5033;46.310;11.214;2024-01-11T12:53:15;9.60;99.90
9987;DHT22;5033;46.310;11.214;2024-01-11T12:55:44;9.50;99.90
9987;DHT22;5033;46.310;11.214;2024-01-11T12:58:13;9.20;99.90
9987;DHT22;5033;46.310;11.214;2024-01-11T13:00:45;9.10;99.90
9987;DHT22;5033;46.310;11.214;2024-01-11T13:03:12;9.10;99.90
9987;DHT22;5033;46.310;11.214;2024-01-11T13:05:39;9.20;99.90
9987;DHT22;5033;46.310;11.214;2024-01-11T13:08:08;9.50;99.90
9987;DHT22;5033;46.310;11.214;2024-01-11T13:10:36;9.60;99.90
9987;DHT22;5033;46.310;11.214;2024-01-11T13:13:04;9.80;99.90
9987;DHT22;5033;46.310;11.214;2024-01-11T13:15:32;9.70;99.90
9987;DHT22;5033;46.310;11.214;2024-01-11T13:18:00;9.70;99.90
9987;DHT22;5033;46.310;11.214;2024-01-11T13:20:27;9.80;99.90
9987;DHT22;5033;46.310;11.214;2024-01-11T13:23:13;9.60;99.90
9987;DHT22;5033;46.310;11.214;2024-01-11T13:25:40;9.60;99.90
9987;DHT22;5033;46.310;11.214;2024-01-11T13:28:08;9.60;99.90
9987;DHT22;5033;46.310;11.214;2024-01-11T13:30:38;9.60;99.90
9987;DHT22;5033;46.310;11.214;2024-01-11T13:33:06;9.80;99.90
9987;DHT22;5033;46.310;11.214;2024-01-11T13:35:33;9.90;99.90
9987;DHT22;5033;46.310;11.214;2024-01-11T13:38:01;9.90;99.90
9987;DHT22;5033;46.310;11.214;2024-01-11T13:40:28;9.80;99.90
9987;DHT22;5033;46.310;11.214;2024-01-11T13:42:55;9.60;99.90
9987;DHT22;5033;46.310;11.214;2024-01-11T13:45:22;9.60;99.90
9987;DHT22;5033;46.310;11.214;2024-01-11T13:47:51;9.50;99.90
9987;DHT22;5033;46.310;11.214;2024-01-11T13:50:19;9.50;99.90
9987;DHT22;5033;46.310;11.214;2024-01-11T13:52:46;9.50;99.90
9987;DHT22;5033;46.310;11.214;2024-01-11T13:55:13;9.50;99.90
9987;DHT22;5033;46.310;11.214;2024-01-11T13:57:40;9.30;99.90
9987;DHT22;5033;46.310;11.214;2024-01-11T14:00:09;9.10;99.90
9987;DHT22;5033;46.310;11.214;2024-01-11T14:02:38;9.00;99.90
9987;DHT22;5033;46.310;11.214;2024-01-11T14:05:08;8.90;99.90
9987;DHT22;5033;46.310;11.214;2024-01-11T14:07:37;8.80;99.90
9987;DHT22;5033;46.310;11.214;2024-01-11T14:10:05;8.40;99.90
9987;DHT22;5033;46.310;11.214;2024-01-11T14:12:34;8.00;99.90
9987;DHT22;5033;46.310;11.214;2024-01-11T14:15:02;8.00;99.90
9987;DHT22;5033;46.310;11.214;2024-01-11T14:17:29;7.80;99.90
9987;DHT22;5033;46.310;11.214;2024-01-11T14:19:56;7.80;99.90
9987;DHT22;5033;46.310;11.214;2024-01-11T14:22:25;7.80;99.90
9987;DHT22;5033;46.310;11.214;2024-01-11T14:24:52;7.80;99.90
9987;DHT22;5033;46.310;11.214;2024-01-11T14:27:20;7.70;99.90
9987;DHT22;5033;46.310;11.214;2024-01-11T14:29:47;7.60;99.90
9987;DHT22;5033;46.310;11.214;2024-01-11T14:32:14;7.50;99.90
9987;DHT22;5033;46.310;11.214;2024-01-11T14:34:42;7.50;99.90
9987;DHT22;5033;46.310;11.214;2024-01-11T14:37:10;7.30;99.90
9987;DHT22;5033;46.310;11.214;2024-01-11T14:39:39;7.20;99.90
9987;DHT22;5033;46.310;11.214;2024-01-11T14:42:06;7.00;99.90
9987;DHT22;5033;46.310;11.214;2024-01-11T14:44:35;6.90;99.90
9987;DHT22;5033;46.310;11.214;2024-01-11T14:47:02;6.80;99.90
9987;DHT22;5033;46.310;11.214;2024-01-11T14:49:29;6.70;99.90
9987;DHT22;5033;46.310;11.214;2024-01-11T14:51:56;6.60;99.90
9987;DHT22;5033;46.310;11.214;2024-01-11T14:54:23;6.60;99.90
9987;DHT22;5033;46.310;11.214;2024-01-11T14:56:52;6.60;99.90
9987;DHT22;5033;46.310;11.214;2024-01-11T14:59:19;6.50;99.90
9987;DHT22;5033;46.310;11.214;2024-01-11T15:01:47;6.40;99.90
9987;DHT22;5033;46.310;11.214;2024-01-11T15:04:14;6.30;99.90
9987;DHT22;5033;46.310;11.214;2024-01-11T15:06:42;6.30;99.90
9987;DHT22;5033;46.310;11.214;2024-01-11T15:09:10;6.30;99.90
9987;DHT22;5033;46.310;11.214;2024-01-11T15:11:38;6.30;99.90
9987;DHT22;5033;46.310;11.214;2024-01-11T15:14:07;6.20;99.90
9987;DHT22;5033;46.310;11.214;2024-01-11T15:16:35;6.10;99.90
9987;DHT22;5033;46.310;11.214;2024-01-11T15:19:02;6.00;99.90
9987;DHT22;5033;46.310;11.214;2024-01-11T15:21:29;5.90;99.90
9987;DHT22;5033;46.310;11.214;2024-01-11T15:23:56;5.90;99.90
9987;DHT22;5033;46.310;11.214;2024-01-11T15:26:24;5.80;99.90
9987;DHT22;5033;46.310;11.214;2024-01-11T15:28:52;5.70;99.90
9987;DHT22;5033;46.310;11.214;2024-01-11T15:31:20;5.60;99.90
9987;DHT22;5033;46.310;11.214;2024-01-11T15:33:47;5.60;99.90
9987;DHT22;5033;46.310;11.214;2024-01-11T15:36:14;5.60;99.90
9987;DHT22;5033;46.310;11.214;2024-01-11T15:38:41;5.60;99.90
9987;DHT22;5033;46.310;11.214;2024-01-11T15:41:08;5.50;99.90
9987;DHT22;5033;46.310;11.214;2024-01-11T15:43:36;5.50;99.90
9987;DHT22;5033;46.310;11.214;2024-01-11T15:46:03;5.50;99.90
9987;DHT22;5033;46.310;11.214;2024-01-11T15:48:32;5.40;99.90
9987;DHT22;5033;46.310;11.214;2024-01-11T15:50:59;5.40;99.90
9987;DHT22;5033;46.310;11.214;2024-01-11T15:53:26;5.30;99.90
9987;DHT22;5033;46.310;11.214;2024-01-11T15:55:53;5.10;99.90
9987;DHT22;5033;46.310;11.214;2024-01-11T15:58:20;5.00;99.90
9987;DHT22;5033;46.310;11.214;2024-01-11T16:00:47;5.00;99.90
9987;DHT22;5033;46.310;11.214;2024-01-11T16:03:14;4.90;99.90